sensor_id;sensor_type;location;lat;lon;timestamp;P1;durP1;ratioP1;P2;durP2;ratioP2
14139;SDS011;7150;53.514;9.988;2022-10-01T00:00:17;2.93;;;2.50;;
14139;SDS011;7150;53.514;9.988;2022-10-01T00:02:44;4.43;;;2.20;;
14139;SDS011;7150;53.514;9.988;2022-10-01T00:05:10;3.03;;;2.43;;
14139;SDS011;7150;53.514;9.988;2022-10-01T00:07:39;2.30;;;2.10;;
14139;SDS011;7150;53.514;9.988;2022-10-01T00:10:06;3.23;;;2.47;;
14139;SDS011;7150;53.514;9.988;2022-10-01T00:12:33;3.47;;;2.50;;
14139;SDS011;7150;53.514;9.988;2022-10-01T00:14:58;2.80;;;2.10;;
14139;SDS011;7150;53.514;9.988;2022-10-01T00:17:24;2.73;;;2.00;;
14139;SDS011;7150;53.514;9.988;2022-10-01T00:19:50;3.03;;;2.10;;
14139;SDS011;7150;53.514;9.988;2022-10-01T00:22:15;1.90;;;1.80;;
14139;SDS011;7150;53.514;9.988;2022-10-01T00:24:43;2.47;;;1.80;;
14139;SDS011;7150;53.514;9.988;2022-10-01T00:27:11;2.17;;;1.77;;
14139;SDS011;7150;53.514;9.988;2022-10-01T00:29:37;2.77;;;2.07;;
14139;SDS011;7150;53.514;9.988;2022-10-01T00:32:04;2.90;;;2.00;;
14139;SDS011;7150;53.514;9.988;2022-10-01T00:34:29;2.63;;;1.90;;
14139;SDS011;7150;53.514;9.988;2022-10-01T00:36:56;2.77;;;2.00;;
14139;SDS011;7150;53.514;9.988;2022-10-01T00:39:21;3.17;;;1.90;;
14139;SDS011;7150;53.514;9.988;2022-10-01T00:41:47;2.67;;;1.97;;
14139;SDS011;7150;53.514;9.988;2022-10-01T00:44:34;2.33;;;1.80;;
14139;SDS011;7150;53.514;9.988;2022-10-01T00:47:06;2.43;;;1.80;;
14139;SDS011;7150;53.514;9.988;2022-10-01T00:49:43;1.97;;;1.77;;
14139;SDS011;7150;53.514;9.988;2022-10-01T00:52:12;2.80;;;1.70;;
14139;SDS011;7150;53.514;9.988;2022-10-01T00:57:06;1.70;;;1.60;;
14139;SDS011;7150;53.514;9.988;2022-10-01T00:59:32;3.83;;;1.87;;
14139;SDS011;7150;53.514;9.988;2022-10-01T01:01:59;2.70;;;1.97;;
14139;SDS011;7150;53.514;9.988;2022-10-01T01:04:24;2.30;;;2.10;;
14139;SDS011;7150;53.514;9.988;2022-10-01T01:06:51;3.10;;;1.70;;
14139;SDS011;7150;53.514;9.988;2022-10-01T01:09:21;2.50;;;1.87;;
14139;SDS011;7150;53.514;9.988;2022-10-01T01:20:11;2.77;;;1.80;;
14139;SDS011;7150;53.514;9.988;2022-10-01T01:23:09;3.10;;;1.90;;
14139;SDS011;7150;53.514;9.988;2022-10-01T01:26:18;2.47;;;1.90;;
14139;SDS011;7150;53.514;9.988;2022-10-01T01:28:46;2.93;;;1.80;;
14139;SDS011;7150;53.514;9.988;2022-10-01T01:31:24;2.13;;;1.90;;
14139;SDS011;7150;53.514;9.988;2022-10-01T01:33:55;2.83;;;1.77;;
14139;SDS011;7150;53.514;9.988;2022-10-01T01:36:25;2.53;;;1.80;;
14139;SDS011;7150;53.514;9.988;2022-10-01T01:38:56;2.70;;;1.80;;
14139;SDS011;7150;53.514;9.988;2022-10-01T01:41:26;2.30;;;2.00;;
14139;SDS011;7150;53.514;9.988;2022-10-01T01:43:54;2.13;;;1.80;;
14139;SDS011;7150;53.514;9.988;2022-10-01T01:46:23;2.70;;;2.20;;
14139;SDS011;7150;53.514;9.988;2022-10-01T01:48:55;1.70;;;1.60;;
14139;SDS011;7150;53.514;9.988;2022-10-01T01:52:09;2.60;;;1.83;;
14139;SDS011;7150;53.514;9.988;2022-10-01T01:54:24;2.43;;;2.00;;
14139;SDS011;7150;53.514;9.988;2022-10-01T01:56:53;2.33;;;1.50;;
14139;SDS011;7150;53.514;9.988;2022-10-01T01:59:20;2.63;;;1.80;;
14139;SDS011;7150;53.514;9.988;2022-10-01T02:01:46;2.23;;;1.77;;
14139;SDS011;7150;53.514;9.988;2022-10-01T02:09:30;3.80;;;1.93;;
14139;SDS011;7150;53.514;9.988;2022-10-01T02:14:48;1.73;;;1.57;;
14139;SDS011;7150;53.514;9.988;2022-10-01T02:17:27;3.50;;;2.00;;
14139;SDS011;7150;53.514;9.988;2022-10-01T02:20:16;2.47;;;2.07;;
14139;SDS011;7150;53.514;9.988;2022-10-01T02:22:48;3.70;;;2.00;;
14139;SDS011;7150;53.514;9.988;2022-10-01T02:25:18;2.40;;;1.90;;
14139;SDS011;7150;53.514;9.988;2022-10-01T02:27:57;2.17;;;1.77;;
14139;SDS011;7150;53.514;9.988;2022-10-01T02:30:30;3.63;;;2.17;;
14139;SDS011;7150;53.514;9.988;2022-10-01T02:32:59;2.87;;;1.90;;
14139;SDS011;7150;53.514;9.988;2022-10-01T02:35:26;3.63;;;1.93;;
14139;SDS011;7150;53.514;9.988;2022-10-01T02:37:55;2.83;;;1.83;;
14139;SDS011;7150;53.514;9.988;2022-10-01T02:40:26;1.87;;;1.70;;
14139;SDS011;7150;53.514;9.988;2022-10-01T02:42:56;2.37;;;1.70;;
14139;SDS011;7150;53.514;9.988;2022-10-01T02:45:26;2.47;;;1.80;;
14139;SDS011;7150;53.514;9.988;2022-10-01T02:47:56;1.90;;;1.70;;
14139;SDS011;7150;53.514;9.988;2022-10-01T02:50:30;2.13;;;1.77;;
14139;SDS011;7150;53.514;9.988;2022-10-01T02:53:10;2.73;;;1.73;;
14139;SDS011;7150;53.514;9.988;2022-10-01T02:55:44;2.83;;;2.23;;
14139;SDS011;7150;53.514;9.988;2022-10-01T02:58:11;2.07;;;1.70;;
14139;SDS011;7150;53.514;9.988;2022-10-01T03:00:36;2.87;;;1.63;;
14139;SDS011;7150;53.514;9.988;2022-10-01T03:03:02;2.90;;;2.13;;
14139;SDS011;7150;53.514;9.988;2022-10-01T03:05:28;2.70;;;2.03;;
14139;SDS011;7150;53.514;9.988;2022-10-01T03:07:53;3.00;;;1.60;;
14139;SDS011;7150;53.514;9.988;2022-10-01T03:10:19;3.27;;;1.80;;
14139;SDS011;7150;53.514;9.988;2022-10-01T03:12:45;2.93;;;1.80;;
14139;SDS011;7150;53.514;9.988;2022-10-01T03:15:11;2.90;;;1.60;;
14139;SDS011;7150;53.514;9.988;2022-10-01T03:17:37;2.33;;;1.57;;
14139;SDS011;7150;53.514;9.988;2022-10-01T03:20:03;1.83;;;1.50;;
14139;SDS011;7150;53.514;9.988;2022-10-01T03:22:29;2.17;;;1.67;;
14139;SDS011;7150;53.514;9.988;2022-10-01T03:24:55;1.80;;;1.43;;
14139;SDS011;7150;53.514;9.988;2022-10-01T03:27:20;2.03;;;1.50;;
14139;SDS011;7150;53.514;9.988;2022-10-01T03:29:46;3.03;;;1.70;;
14139;SDS011;7150;53.514;9.988;2022-10-01T03:32:12;2.50;;;1.50;;
14139;SDS011;7150;53.514;9.988;2022-10-01T03:34:38;2.23;;;1.60;;
14139;SDS011;7150;53.514;9.988;2022-10-01T03:37:04;2.67;;;1.70;;
14139;SDS011;7150;53.514;9.988;2022-10-01T03:39:30;2.43;;;1.80;;
14139;SDS011;7150;53.514;9.988;2022-10-01T03:41:55;2.77;;;1.53;;
14139;SDS011;7150;53.514;9.988;2022-10-01T03:44:21;2.03;;;1.50;;
14139;SDS011;7150;53.514;9.988;2022-10-01T03:46:47;3.30;;;1.67;;
14139;SDS011;7150;53.514;9.988;2022-10-01T03:49:12;3.10;;;1.53;;
14139;SDS011;7150;53.514;9.988;2022-10-01T03:51:38;1.90;;;1.43;;
14139;SDS011;7150;53.514;9.988;2022-10-01T03:54:04;2.07;;;1.50;;
14139;SDS011;7150;53.514;9.988;2022-10-01T03:56:31;2.37;;;1.50;;
14139;SDS011;7150;53.514;9.988;2022-10-01T03:58:57;2.23;;;1.67;;
14139;SDS011;7150;53.514;9.988;2022-10-01T04:01:23;1.60;;;1.33;;
14139;SDS011;7150;53.514;9.988;2022-10-01T04:03:50;3.10;;;1.50;;
14139;SDS011;7150;53.514;9.988;2022-10-01T04:06:16;2.33;;;1.67;;
14139;SDS011;7150;53.514;9.988;2022-10-01T04:08:41;1.77;;;1.43;;
14139;SDS011;7150;53.514;9.988;2022-10-01T04:11:07;2.20;;;1.73;;
14139;SDS011;7150;53.514;9.988;2022-10-01T04:13:33;1.90;;;1.60;;
14139;SDS011;7150;53.514;9.988;2022-10-01T04:16:00;2.37;;;1.80;;
14139;SDS011;7150;53.514;9.988;2022-10-01T04:18:29;2.87;;;1.80;;
14139;SDS011;7150;53.514;9.988;2022-10-01T04:20:55;3.43;;;2.10;;
14139;SDS011;7150;53.514;9.988;2022-10-01T04:23:21;2.30;;;1.80;;
14139;SDS011;7150;53.514;9.988;2022-10-01T04:25:47;3.33;;;1.47;;
14139;SDS011;7150;53.514;9.988;2022-10-01T04:28:13;2.53;;;1.87;;
14139;SDS011;7150;53.514;9.988;2022-10-01T04:30:40;3.33;;;2.00;;
14139;SDS011;7150;53.514;9.988;2022-10-01T04:33:06;1.60;;;1.50;;
14139;SDS011;7150;53.514;9.988;2022-10-01T04:35:35;2.17;;;1.80;;
14139;SDS011;7150;53.514;9.988;2022-10-01T04:38:02;1.80;;;1.70;;
14139;SDS011;7150;53.514;9.988;2022-10-01T04:40:30;2.47;;;1.80;;
14139;SDS011;7150;53.514;9.988;2022-10-01T04:42:58;2.00;;;1.80;;
14139;SDS011;7150;53.514;9.988;2022-10-01T04:45:24;3.60;;;1.73;;
14139;SDS011;7150;53.514;9.988;2022-10-01T04:47:50;2.27;;;1.70;;
14139;SDS011;7150;53.514;9.988;2022-10-01T04:50:18;2.20;;;1.63;;
14139;SDS011;7150;53.514;9.988;2022-10-01T04:52:44;2.13;;;1.90;;
14139;SDS011;7150;53.514;9.988;2022-10-01T04:55:10;2.17;;;1.97;;
14139;SDS011;7150;53.514;9.988;2022-10-01T04:57:36;3.30;;;1.70;;
14139;SDS011;7150;53.514;9.988;2022-10-01T05:00:03;2.20;;;2.00;;
14139;SDS011;7150;53.514;9.988;2022-10-01T05:02:30;2.20;;;1.97;;
14139;SDS011;7150;53.514;9.988;2022-10-01T05:04:58;2.27;;;1.90;;
14139;SDS011;7150;53.514;9.988;2022-10-01T05:07:31;2.30;;;1.70;;
14139;SDS011;7150;53.514;9.988;2022-10-01T05:09:57;2.40;;;2.00;;
14139;SDS011;7150;53.514;9.988;2022-10-01T05:12:24;2.43;;;1.80;;
14139;SDS011;7150;53.514;9.988;2022-10-01T05:14:50;2.60;;;1.97;;
14139;SDS011;7150;53.514;9.988;2022-10-01T05:17:16;2.83;;;1.90;;
14139;SDS011;7150;53.514;9.988;2022-10-01T05:19:43;1.90;;;1.70;;
14139;SDS011;7150;53.514;9.988;2022-10-01T05:22:09;2.80;;;2.10;;
14139;SDS011;7150;53.514;9.988;2022-10-01T05:24:34;1.80;;;1.60;;
14139;SDS011;7150;53.514;9.988;2022-10-01T05:27:00;4.37;;;1.70;;
14139;SDS011;7150;53.514;9.988;2022-10-01T05:29:25;2.07;;;1.77;;
14139;SDS011;7150;53.514;9.988;2022-10-01T05:31:51;1.77;;;1.60;;
14139;SDS011;7150;53.514;9.988;2022-10-01T05:34:17;2.60;;;1.87;;
14139;SDS011;7150;53.514;9.988;2022-10-01T05:36:42;2.80;;;1.83;;
14139;SDS011;7150;53.514;9.988;2022-10-01T05:39:08;2.00;;;1.73;;
14139;SDS011;7150;53.514;9.988;2022-10-01T05:41:33;3.77;;;2.20;;
14139;SDS011;7150;53.514;9.988;2022-10-01T05:43:59;2.90;;;1.60;;
14139;SDS011;7150;53.514;9.988;2022-10-01T05:46:24;2.57;;;1.90;;
14139;SDS011;7150;53.514;9.988;2022-10-01T05:48:51;2.67;;;1.90;;
14139;SDS011;7150;53.514;9.988;2022-10-01T05:51:16;2.33;;;1.70;;
14139;SDS011;7150;53.514;9.988;2022-10-01T05:53:42;2.17;;;1.80;;
14139;SDS011;7150;53.514;9.988;2022-10-01T05:56:08;2.33;;;1.67;;
14139;SDS011;7150;53.514;9.988;2022-10-01T05:58:34;3.03;;;1.90;;
14139;SDS011;7150;53.514;9.988;2022-10-01T06:01:00;2.20;;;1.70;;
14139;SDS011;7150;53.514;9.988;2022-10-01T06:03:26;2.83;;;1.83;;
14139;SDS011;7150;53.514;9.988;2022-10-01T06:05:53;3.40;;;2.00;;
14139;SDS011;7150;53.514;9.988;2022-10-01T06:08:18;2.20;;;2.00;;
14139;SDS011;7150;53.514;9.988;2022-10-01T06:10:44;2.47;;;1.90;;
14139;SDS011;7150;53.514;9.988;2022-10-01T06:13:11;2.13;;;1.70;;
14139;SDS011;7150;53.514;9.988;2022-10-01T06:15:41;5.97;;;2.87;;
14139;SDS011;7150;53.514;9.988;2022-10-01T06:18:09;1.90;;;1.73;;
14139;SDS011;7150;53.514;9.988;2022-10-01T06:20:36;2.53;;;1.90;;
14139;SDS011;7150;53.514;9.988;2022-10-01T06:23:03;2.50;;;1.90;;
14139;SDS011;7150;53.514;9.988;2022-10-01T06:25:31;2.00;;;1.80;;
14139;SDS011;7150;53.514;9.988;2022-10-01T06:27:58;2.60;;;1.80;;
14139;SDS011;7150;53.514;9.988;2022-10-01T06:30:25;2.80;;;2.00;;
14139;SDS011;7150;53.514;9.988;2022-10-01T06:32:53;2.10;;;1.90;;
14139;SDS011;7150;53.514;9.988;2022-10-01T06:35:29;2.30;;;1.87;;
14139;SDS011;7150;53.514;9.988;2022-10-01T06:37:55;1.83;;;1.70;;
14139;SDS011;7150;53.514;9.988;2022-10-01T06:40:21;3.10;;;2.20;;
14139;SDS011;7150;53.514;9.988;2022-10-01T06:42:47;2.70;;;1.73;;
14139;SDS011;7150;53.514;9.988;2022-10-01T06:45:14;2.87;;;1.97;;
14139;SDS011;7150;53.514;9.988;2022-10-01T06:47:43;2.03;;;1.83;;
14139;SDS011;7150;53.514;9.988;2022-10-01T06:50:09;2.03;;;1.50;;
14139;SDS011;7150;53.514;9.988;2022-10-01T06:52:35;3.13;;;2.00;;
14139;SDS011;7150;53.514;9.988;2022-10-01T06:55:14;2.97;;;1.97;;
14139;SDS011;7150;53.514;9.988;2022-10-01T06:57:43;1.97;;;1.77;;
14139;SDS011;7150;53.514;9.988;2022-10-01T07:00:09;4.00;;;2.20;;
14139;SDS011;7150;53.514;9.988;2022-10-01T07:02:36;2.47;;;1.70;;
14139;SDS011;7150;53.514;9.988;2022-10-01T07:05:02;2.27;;;1.70;;
14139;SDS011;7150;53.514;9.988;2022-10-01T07:07:29;1.67;;;1.43;;
14139;SDS011;7150;53.514;9.988;2022-10-01T07:09:56;2.50;;;1.73;;
14139;SDS011;7150;53.514;9.988;2022-10-01T07:12:22;2.97;;;1.63;;
14139;SDS011;7150;53.514;9.988;2022-10-01T07:14:47;2.07;;;1.63;;
14139;SDS011;7150;53.514;9.988;2022-10-01T07:17:13;2.87;;;1.63;;
14139;SDS011;7150;53.514;9.988;2022-10-01T07:19:38;1.80;;;1.60;;
14139;SDS011;7150;53.514;9.988;2022-10-01T07:22:04;2.67;;;1.50;;
14139;SDS011;7150;53.514;9.988;2022-10-01T07:24:29;3.07;;;1.80;;
14139;SDS011;7150;53.514;9.988;2022-10-01T07:26:55;1.70;;;1.60;;
14139;SDS011;7150;53.514;9.988;2022-10-01T07:29:21;2.00;;;1.63;;
14139;SDS011;7150;53.514;9.988;2022-10-01T07:31:48;3.10;;;1.70;;
14139;SDS011;7150;53.514;9.988;2022-10-01T07:34:14;1.40;;;1.13;;
14139;SDS011;7150;53.514;9.988;2022-10-01T07:36:40;2.40;;;1.83;;
14139;SDS011;7150;53.514;9.988;2022-10-01T07:39:09;2.70;;;1.63;;
14139;SDS011;7150;53.514;9.988;2022-10-01T07:41:37;2.23;;;1.63;;
14139;SDS011;7150;53.514;9.988;2022-10-01T07:44:03;2.17;;;1.93;;
14139;SDS011;7150;53.514;9.988;2022-10-01T07:46:29;2.80;;;1.80;;
14139;SDS011;7150;53.514;9.988;2022-10-01T07:48:54;2.20;;;1.63;;
14139;SDS011;7150;53.514;9.988;2022-10-01T07:51:20;1.87;;;1.63;;
14139;SDS011;7150;53.514;9.988;2022-10-01T07:53:45;1.73;;;1.50;;
14139;SDS011;7150;53.514;9.988;2022-10-01T07:56:11;2.23;;;1.50;;
14139;SDS011;7150;53.514;9.988;2022-10-01T07:58:37;1.97;;;1.70;;
14139;SDS011;7150;53.514;9.988;2022-10-01T08:01:03;1.50;;;1.40;;
14139;SDS011;7150;53.514;9.988;2022-10-01T08:03:29;2.40;;;1.70;;
14139;SDS011;7150;53.514;9.988;2022-10-01T08:05:54;2.10;;;1.87;;
14139;SDS011;7150;53.514;9.988;2022-10-01T08:08:20;2.33;;;1.80;;
14139;SDS011;7150;53.514;9.988;2022-10-01T08:10:46;2.07;;;1.80;;
14139;SDS011;7150;53.514;9.988;2022-10-01T08:13:15;2.07;;;1.80;;
14139;SDS011;7150;53.514;9.988;2022-10-01T08:15:42;2.93;;;1.93;;
14139;SDS011;7150;53.514;9.988;2022-10-01T08:18:09;2.20;;;1.87;;
14139;SDS011;7150;53.514;9.988;2022-10-01T08:20:35;2.07;;;1.50;;
14139;SDS011;7150;53.514;9.988;2022-10-01T08:23:03;1.70;;;1.53;;
14139;SDS011;7150;53.514;9.988;2022-10-01T08:25:30;2.03;;;1.60;;
14139;SDS011;7150;53.514;9.988;2022-10-01T08:27:56;2.90;;;1.53;;
14139;SDS011;7150;53.514;9.988;2022-10-01T08:30:21;1.57;;;1.40;;
14139;SDS011;7150;53.514;9.988;2022-10-01T08:32:47;1.93;;;1.53;;
14139;SDS011;7150;53.514;9.988;2022-10-01T08:35:12;2.33;;;1.60;;
14139;SDS011;7150;53.514;9.988;2022-10-01T08:37:38;1.87;;;1.30;;
14139;SDS011;7150;53.514;9.988;2022-10-01T08:40:03;1.87;;;1.40;;
14139;SDS011;7150;53.514;9.988;2022-10-01T08:44:58;1.27;;;1.17;;
14139;SDS011;7150;53.514;9.988;2022-10-01T08:48:12;1.17;;;1.03;;
14139;SDS011;7150;53.514;9.988;2022-10-01T08:50:48;1.13;;;0.90;;
14139;SDS011;7150;53.514;9.988;2022-10-01T08:53:44;1.47;;;1.10;;
14139;SDS011;7150;53.514;9.988;2022-10-01T08:59:24;1.37;;;1.27;;
14139;SDS011;7150;53.514;9.988;2022-10-01T09:02:11;1.40;;;1.20;;
14139;SDS011;7150;53.514;9.988;2022-10-01T09:04:39;2.00;;;0.97;;
14139;SDS011;7150;53.514;9.988;2022-10-01T09:07:13;1.10;;;0.90;;
14139;SDS011;7150;53.514;9.988;2022-10-01T09:10:03;1.30;;;1.20;;
14139;SDS011;7150;53.514;9.988;2022-10-01T09:15:41;1.20;;;1.10;;
14139;SDS011;7150;53.514;9.988;2022-10-01T09:21:33;1.20;;;1.03;;
14139;SDS011;7150;53.514;9.988;2022-10-01T09:26:50;1.40;;;1.30;;
14139;SDS011;7150;53.514;9.988;2022-10-01T09:29:21;1.23;;;1.10;;
14139;SDS011;7150;53.514;9.988;2022-10-01T09:31:51;1.50;;;1.20;;
14139;SDS011;7150;53.514;9.988;2022-10-01T09:34:25;1.50;;;1.30;;
14139;SDS011;7150;53.514;9.988;2022-10-01T09:37:42;1.60;;;1.03;;
14139;SDS011;7150;53.514;9.988;2022-10-01T09:39:58;1.43;;;1.30;;
14139;SDS011;7150;53.514;9.988;2022-10-01T09:42:39;1.33;;;1.23;;
14139;SDS011;7150;53.514;9.988;2022-10-01T09:45:05;1.90;;;1.70;;
14139;SDS011;7150;53.514;9.988;2022-10-01T09:47:32;3.67;;;1.13;;
14139;SDS011;7150;53.514;9.988;2022-10-01T09:49:58;2.80;;;1.33;;
14139;SDS011;7150;53.514;9.988;2022-10-01T09:52:31;1.43;;;1.30;;
14139;SDS011;7150;53.514;9.988;2022-10-01T09:55:05;1.50;;;1.40;;
14139;SDS011;7150;53.514;9.988;2022-10-01T09:57:35;1.20;;;1.10;;
14139;SDS011;7150;53.514;9.988;2022-10-01T10:00:09;1.53;;;1.40;;
14139;SDS011;7150;53.514;9.988;2022-10-01T10:02:44;1.50;;;1.40;;
14139;SDS011;7150;53.514;9.988;2022-10-01T10:07:46;1.90;;;1.70;;
14139;SDS011;7150;53.514;9.988;2022-10-01T10:12:46;2.50;;;1.70;;
14139;SDS011;7150;53.514;9.988;2022-10-01T10:15:19;2.20;;;1.60;;
14139;SDS011;7150;53.514;9.988;2022-10-01T10:17:46;2.23;;;1.80;;
14139;SDS011;7150;53.514;9.988;2022-10-01T10:20:27;1.97;;;1.63;;
14139;SDS011;7150;53.514;9.988;2022-10-01T10:23:16;2.90;;;1.80;;
14139;SDS011;7150;53.514;9.988;2022-10-01T10:26:02;1.83;;;1.63;;
14139;SDS011;7150;53.514;9.988;2022-10-01T10:28:40;2.30;;;2.03;;
14139;SDS011;7150;53.514;9.988;2022-10-01T10:31:15;2.40;;;1.93;;
14139;SDS011;7150;53.514;9.988;2022-10-01T10:33:46;3.20;;;2.10;;
14139;SDS011;7150;53.514;9.988;2022-10-01T10:36:15;2.93;;;2.07;;
14139;SDS011;7150;53.514;9.988;2022-10-01T10:38:44;2.53;;;2.13;;
14139;SDS011;7150;53.514;9.988;2022-10-01T10:41:15;3.57;;;1.93;;
14139;SDS011;7150;53.514;9.988;2022-10-01T10:43:44;3.83;;;1.93;;
14139;SDS011;7150;53.514;9.988;2022-10-01T10:46:18;3.57;;;1.90;;
14139;SDS011;7150;53.514;9.988;2022-10-01T10:48:53;2.53;;;1.60;;
14139;SDS011;7150;53.514;9.988;2022-10-01T10:51:23;3.80;;;2.00;;
14139;SDS011;7150;53.514;9.988;2022-10-01T10:53:51;1.90;;;1.70;;
14139;SDS011;7150;53.514;9.988;2022-10-01T10:56:21;3.47;;;2.07;;
14139;SDS011;7150;53.514;9.988;2022-10-01T10:58:48;2.00;;;1.70;;
14139;SDS011;7150;53.514;9.988;2022-10-01T11:01:16;2.50;;;1.90;;
14139;SDS011;7150;53.514;9.988;2022-10-01T11:03:50;2.87;;;1.80;;
14139;SDS011;7150;53.514;9.988;2022-10-01T11:06:20;3.73;;;2.50;;
14139;SDS011;7150;53.514;9.988;2022-10-01T11:08:46;2.93;;;1.80;;
14139;SDS011;7150;53.514;9.988;2022-10-01T11:22:45;2.47;;;1.83;;
14139;SDS011;7150;53.514;9.988;2022-10-01T11:25:36;2.23;;;1.80;;
14139;SDS011;7150;53.514;9.988;2022-10-01T11:36:26;3.40;;;2.20;;
14139;SDS011;7150;53.514;9.988;2022-10-01T11:38:59;1.87;;;1.73;;
14139;SDS011;7150;53.514;9.988;2022-10-01T11:41:30;3.57;;;2.00;;
14139;SDS011;7150;53.514;9.988;2022-10-01T11:44:06;4.90;;;1.80;;
14139;SDS011;7150;53.514;9.988;2022-10-01T11:47:02;2.30;;;2.07;;
14139;SDS011;7150;53.514;9.988;2022-10-01T11:52:30;4.50;;;1.87;;
14139;SDS011;7150;53.514;9.988;2022-10-01T11:58:27;4.63;;;2.13;;
14139;SDS011;7150;53.514;9.988;2022-10-01T12:06:16;8.47;;;2.10;;
14139;SDS011;7150;53.514;9.988;2022-10-01T12:08:46;5.73;;;2.30;;
14139;SDS011;7150;53.514;9.988;2022-10-01T12:11:34;6.70;;;3.13;;
14139;SDS011;7150;53.514;9.988;2022-10-01T12:14:08;2.73;;;2.03;;
14139;SDS011;7150;53.514;9.988;2022-10-01T12:16:45;3.87;;;1.73;;
14139;SDS011;7150;53.514;9.988;2022-10-01T12:19:20;4.33;;;1.93;;
14139;SDS011;7150;53.514;9.988;2022-10-01T12:24:29;6.53;;;2.37;;
14139;SDS011;7150;53.514;9.988;2022-10-01T12:27:13;1.97;;;1.37;;
14139;SDS011;7150;53.514;9.988;2022-10-01T12:30:14;1.60;;;1.40;;
14139;SDS011;7150;53.514;9.988;2022-10-01T12:33:00;3.90;;;1.60;;
14139;SDS011;7150;53.514;9.988;2022-10-01T12:36:07;3.40;;;1.70;;
14139;SDS011;7150;53.514;9.988;2022-10-01T12:41:37;2.67;;;1.83;;
14139;SDS011;7150;53.514;9.988;2022-10-01T12:47:14;3.67;;;1.77;;
14139;SDS011;7150;53.514;9.988;2022-10-01T12:49:59;3.23;;;1.77;;
14139;SDS011;7150;53.514;9.988;2022-10-01T12:58:32;2.30;;;1.37;;
14139;SDS011;7150;53.514;9.988;2022-10-01T13:04:00;1.47;;;1.00;;
14139;SDS011;7150;53.514;9.988;2022-10-01T13:09:30;3.10;;;1.27;;
14139;SDS011;7150;53.514;9.988;2022-10-01T13:12:31;1.77;;;1.20;;
14139;SDS011;7150;53.514;9.988;2022-10-01T13:15:16;2.63;;;1.30;;
14139;SDS011;7150;53.514;9.988;2022-10-01T13:17:53;1.97;;;1.20;;
14139;SDS011;7150;53.514;9.988;2022-10-01T13:23:50;4.13;;;1.40;;
14139;SDS011;7150;53.514;9.988;2022-10-01T13:26:28;4.17;;;1.43;;
14139;SDS011;7150;53.514;9.988;2022-10-01T13:34:55;3.10;;;1.13;;
14139;SDS011;7150;53.514;9.988;2022-10-01T13:37:37;1.83;;;1.00;;
14139;SDS011;7150;53.514;9.988;2022-10-01T13:40:25;3.10;;;1.30;;
14139;SDS011;7150;53.514;9.988;2022-10-01T13:42:52;2.07;;;1.27;;
14139;SDS011;7150;53.514;9.988;2022-10-01T13:45:21;0.80;;;0.70;;
14139;SDS011;7150;53.514;9.988;2022-10-01T13:48:03;1.70;;;0.90;;
14139;SDS011;7150;53.514;9.988;2022-10-01T13:50:30;0.60;;;0.60;;
14139;SDS011;7150;53.514;9.988;2022-10-01T13:53:03;1.30;;;0.90;;
14139;SDS011;7150;53.514;9.988;2022-10-01T13:55:32;2.07;;;0.87;;
14139;SDS011;7150;53.514;9.988;2022-10-01T13:58:04;1.27;;;0.90;;
14139;SDS011;7150;53.514;9.988;2022-10-01T14:00:57;2.07;;;1.00;;
14139;SDS011;7150;53.514;9.988;2022-10-01T14:03:26;2.10;;;1.20;;
14139;SDS011;7150;53.514;9.988;2022-10-01T14:09:22;3.30;;;1.00;;
14139;SDS011;7150;53.514;9.988;2022-10-01T14:12:11;1.30;;;1.00;;
14139;SDS011;7150;53.514;9.988;2022-10-01T14:15:00;2.70;;;1.00;;
14139;SDS011;7150;53.514;9.988;2022-10-01T14:17:56;1.37;;;0.70;;
14139;SDS011;7150;53.514;9.988;2022-10-01T14:20:26;1.13;;;0.80;;
14139;SDS011;7150;53.514;9.988;2022-10-01T14:23:01;1.33;;;1.10;;
14139;SDS011;7150;53.514;9.988;2022-10-01T14:28:19;2.27;;;0.80;;
14139;SDS011;7150;53.514;9.988;2022-10-01T14:36:29;1.67;;;1.00;;
14139;SDS011;7150;53.514;9.988;2022-10-01T14:39:02;1.73;;;1.53;;
14139;SDS011;7150;53.514;9.988;2022-10-01T14:41:45;3.70;;;1.30;;
14139;SDS011;7150;53.514;9.988;2022-10-01T14:44:25;2.60;;;1.60;;
14139;SDS011;7150;53.514;9.988;2022-10-01T14:46:53;4.03;;;1.73;;
14139;SDS011;7150;53.514;9.988;2022-10-01T14:49:24;2.97;;;1.40;;
14139;SDS011;7150;53.514;9.988;2022-10-01T14:51:55;2.03;;;1.20;;
14139;SDS011;7150;53.514;9.988;2022-10-01T14:54:23;2.50;;;0.90;;
14139;SDS011;7150;53.514;9.988;2022-10-01T14:56:49;1.20;;;0.80;;
14139;SDS011;7150;53.514;9.988;2022-10-01T14:59:18;3.20;;;1.00;;
14139;SDS011;7150;53.514;9.988;2022-10-01T15:01:56;2.20;;;0.87;;
14139;SDS011;7150;53.514;9.988;2022-10-01T15:04:23;1.93;;;1.00;;
14139;SDS011;7150;53.514;9.988;2022-10-01T15:06:49;2.33;;;0.93;;
14139;SDS011;7150;53.514;9.988;2022-10-01T15:09:14;3.03;;;1.27;;
14139;SDS011;7150;53.514;9.988;2022-10-01T15:11:42;3.90;;;1.10;;
14139;SDS011;7150;53.514;9.988;2022-10-01T15:14:14;1.80;;;1.00;;
14139;SDS011;7150;53.514;9.988;2022-10-01T15:16:43;1.53;;;1.10;;
14139;SDS011;7150;53.514;9.988;2022-10-01T15:19:10;2.33;;;0.70;;
14139;SDS011;7150;53.514;9.988;2022-10-01T15:21:55;2.37;;;1.00;;
14139;SDS011;7150;53.514;9.988;2022-10-01T15:24:41;1.70;;;0.87;;
14139;SDS011;7150;53.514;9.988;2022-10-01T15:27:10;1.73;;;0.97;;
14139;SDS011;7150;53.514;9.988;2022-10-01T15:29:37;2.77;;;1.00;;
14139;SDS011;7150;53.514;9.988;2022-10-01T15:32:04;2.60;;;1.20;;
14139;SDS011;7150;53.514;9.988;2022-10-01T15:34:31;1.07;;;0.60;;
14139;SDS011;7150;53.514;9.988;2022-10-01T15:36:57;2.17;;;1.10;;
14139;SDS011;7150;53.514;9.988;2022-10-01T15:39:31;2.03;;;1.00;;
14139;SDS011;7150;53.514;9.988;2022-10-01T15:42:00;1.67;;;1.20;;
14139;SDS011;7150;53.514;9.988;2022-10-01T15:44:37;1.50;;;0.93;;
14139;SDS011;7150;53.514;9.988;2022-10-01T15:47:26;0.70;;;0.70;;
14139;SDS011;7150;53.514;9.988;2022-10-01T15:52:44;2.20;;;1.13;;
14139;SDS011;7150;53.514;9.988;2022-10-01T15:55:14;2.53;;;1.20;;
14139;SDS011;7150;53.514;9.988;2022-10-01T15:57:51;2.63;;;1.10;;
14139;SDS011;7150;53.514;9.988;2022-10-01T16:00:41;2.23;;;1.20;;
14139;SDS011;7150;53.514;9.988;2022-10-01T16:03:26;2.47;;;1.20;;
14139;SDS011;7150;53.514;9.988;2022-10-01T16:05:56;3.73;;;1.40;;
14139;SDS011;7150;53.514;9.988;2022-10-01T16:08:26;2.33;;;1.20;;
14139;SDS011;7150;53.514;9.988;2022-10-01T16:14:13;3.47;;;1.33;;
14139;SDS011;7150;53.514;9.988;2022-10-01T16:16:45;2.27;;;1.20;;
14139;SDS011;7150;53.514;9.988;2022-10-01T16:19:28;2.23;;;1.20;;
14139;SDS011;7150;53.514;9.988;2022-10-01T16:24:49;3.57;;;1.50;;
14139;SDS011;7150;53.514;9.988;2022-10-01T16:27:18;4.70;;;1.33;;
14139;SDS011;7150;53.514;9.988;2022-10-01T16:29:49;6.67;;;2.00;;
14139;SDS011;7150;53.514;9.988;2022-10-01T16:32:17;2.60;;;1.57;;
14139;SDS011;7150;53.514;9.988;2022-10-01T16:34:42;2.00;;;1.30;;
14139;SDS011;7150;53.514;9.988;2022-10-01T16:37:08;4.27;;;1.53;;
14139;SDS011;7150;53.514;9.988;2022-10-01T16:39:33;1.37;;;1.13;;
14139;SDS011;7150;53.514;9.988;2022-10-01T16:41:59;5.53;;;1.50;;
14139;SDS011;7150;53.514;9.988;2022-10-01T16:44:25;3.90;;;1.23;;
14139;SDS011;7150;53.514;9.988;2022-10-01T16:46:51;2.47;;;1.43;;
14139;SDS011;7150;53.514;9.988;2022-10-01T16:49:18;5.53;;;1.60;;
14139;SDS011;7150;53.514;9.988;2022-10-01T16:51:44;3.77;;;1.33;;
14139;SDS011;7150;53.514;9.988;2022-10-01T16:54:23;2.60;;;1.43;;
14139;SDS011;7150;53.514;9.988;2022-10-01T16:56:50;1.83;;;1.00;;
14139;SDS011;7150;53.514;9.988;2022-10-01T16:59:18;3.80;;;1.60;;
14139;SDS011;7150;53.514;9.988;2022-10-01T17:01:46;4.13;;;1.40;;
14139;SDS011;7150;53.514;9.988;2022-10-01T17:04:15;4.47;;;1.60;;
14139;SDS011;7150;53.514;9.988;2022-10-01T17:06:41;4.30;;;1.53;;
14139;SDS011;7150;53.514;9.988;2022-10-01T17:09:06;3.23;;;1.73;;
14139;SDS011;7150;53.514;9.988;2022-10-01T17:11:32;4.37;;;1.60;;
14139;SDS011;7150;53.514;9.988;2022-10-01T17:13:58;3.00;;;1.47;;
14139;SDS011;7150;53.514;9.988;2022-10-01T17:16:25;3.03;;;1.20;;
14139;SDS011;7150;53.514;9.988;2022-10-01T17:18:50;4.93;;;1.77;;
14139;SDS011;7150;53.514;9.988;2022-10-01T17:21:16;3.07;;;1.17;;